sensor_id;sensor_type;location;lat;lon;timestamp;temperature;humidity
34837;DHT22;21053;50.848;4.652;2023-06-10T00:01:45;21.10;92.50
34837;DHT22;21053;50.848;4.652;2023-06-10T00:04:16;20.90;92.30
34837;DHT22;21053;50.848;4.652;2023-06-10T00:06:48;20.90;91.10
34837;DHT22;21053;50.848;4.652;2023-06-10T00:09:15;21.00;90.90
34837;DHT22;21053;50.848;4.652;2023-06-10T00:11:42;21.10;89.70
34837;DHT22;21053;50.848;4.652;2023-06-10T00:14:11;21.20;89.30
34837;DHT22;21053;50.848;4.652;2023-06-10T00:16:38;21.30;88.60
34837;DHT22;21053;50.848;4.652;2023-06-10T00:19:05;21.60;87.00
34837;DHT22;21053;50.848;4.652;2023-06-10T00:21:34;21.70;86.20
34837;DHT22;21053;50.848;4.652;2023-06-10T00:24:11;21.80;85.30
34837;DHT22;21053;50.848;4.652;2023-06-10T00:26:39;21.80;85.20
34837;DHT22;21053;50.848;4.652;2023-06-10T00:29:20;21.90;84.90
34837;DHT22;21053;50.848;4.652;2023-06-10T00:31:49;21.90;84.40
34837;DHT22;21053;50.848;4.652;2023-06-10T00:34:16;22.00;86.10
34837;DHT22;21053;50.848;4.652;2023-06-10T00:36:43;21.90;84.90
34837;DHT22;21053;50.848;4.652;2023-06-10T00:39:11;22.00;84.00
34837;DHT22;21053;50.848;4.652;2023-06-10T00:41:49;22.00;83.70
34837;DHT22;21053;50.848;4.652;2023-06-10T00:44:16;22.00;83.60
34837;DHT22;21053;50.848;4.652;2023-06-10T00:46:45;22.00;83.20
34837;DHT22;21053;50.848;4.652;2023-06-10T00:49:13;22.00;83.60
34837;DHT22;21053;50.848;4.652;2023-06-10T00:51:40;22.00;82.90
34837;DHT22;21053;50.848;4.652;2023-06-10T00:54:08;22.10;83.00
34837;DHT22;21053;50.848;4.652;2023-06-10T00:56:36;22.10;82.30
34837;DHT22;21053;50.848;4.652;2023-06-10T00:59:03;22.10;82.50
34837;DHT22;21053;50.848;4.652;2023-06-10T01:01:32;22.10;83.90
34837;DHT22;21053;50.848;4.652;2023-06-10T01:04:01;22.10;83.30
34837;DHT22;21053;50.848;4.652;2023-06-10T01:06:56;22.00;85.20
34837;DHT22;21053;50.848;4.652;2023-06-10T01:12:43;21.80;85.70
34837;DHT22;21053;50.848;4.652;2023-06-10T01:15:17;21.70;88.30
34837;DHT22;21053;50.848;4.652;2023-06-10T01:18:08;21.60;89.20
34837;DHT22;21053;50.848;4.652;2023-06-10T01:20:36;21.40;90.10
34837;DHT22;21053;50.848;4.652;2023-06-10T01:23:08;21.30;90.40
34837;DHT22;21053;50.848;4.652;2023-06-10T01:25:43;21.10;90.50
34837;DHT22;21053;50.848;4.652;2023-06-10T01:28:38;21.00;91.30
34837;DHT22;21053;50.848;4.652;2023-06-10T01:34:05;20.70;91.90
34837;DHT22;21053;50.848;4.652;2023-06-10T01:36:35;20.50;92.20
34837;DHT22;21053;50.848;4.652;2023-06-10T01:39:04;20.30;92.60
34837;DHT22;21053;50.848;4.652;2023-06-10T01:41:32;20.20;92.80
34837;DHT22;21053;50.848;4.652;2023-06-10T01:44:02;20.10;93.20
34837;DHT22;21053;50.848;4.652;2023-06-10T01:46:31;19.90;93.80
34837;DHT22;21053;50.848;4.652;2023-06-10T01:49:00;19.80;94.30
34837;DHT22;21053;50.848;4.652;2023-06-10T01:51:28;19.70;94.50
34837;DHT22;21053;50.848;4.652;2023-06-10T01:54:03;19.80;94.20
34837;DHT22;21053;50.848;4.652;2023-06-10T01:56:32;19.80;94.00
34837;DHT22;21053;50.848;4.652;2023-06-10T01:59:00;19.70;94.00
34837;DHT22;21053;50.848;4.652;2023-06-10T02:01:29;19.70;94.00
34837;DHT22;21053;50.848;4.652;2023-06-10T02:03:57;19.70;94.30
34837;DHT22;21053;50.848;4.652;2023-06-10T02:06:26;19.70;94.50
34837;DHT22;21053;50.848;4.652;2023-06-10T02:08:55;19.40;94.80
34837;DHT22;21053;50.848;4.652;2023-06-10T02:11:24;19.40;94.80
34837;DHT22;21053;50.848;4.652;2023-06-10T02:13:50;19.30;94.60
34837;DHT22;21053;50.848;4.652;2023-06-10T02:16:18;19.20;94.80
34837;DHT22;21053;50.848;4.652;2023-06-10T02:18:49;19.00;94.90
34837;DHT22;21053;50.848;4.652;2023-06-10T02:21:18;19.00;95.10
34837;DHT22;21053;50.848;4.652;2023-06-10T02:23:47;18.90;95.10
34837;DHT22;21053;50.848;4.652;2023-06-10T02:26:12;18.90;95.20
34837;DHT22;21053;50.848;4.652;2023-06-10T02:28:44;18.90;95.10
34837;DHT22;21053;50.848;4.652;2023-06-10T02:31:11;18.90;95.00
34837;DHT22;21053;50.848;4.652;2023-06-10T02:33:57;19.00;94.90
34837;DHT22;21053;50.848;4.652;2023-06-10T02:36:23;19.00;94.80
34837;DHT22;21053;50.848;4.652;2023-06-10T02:38:52;18.90;94.90
34837;DHT22;21053;50.848;4.652;2023-06-10T02:41:21;18.80;94.90
34837;DHT22;21053;50.848;4.652;2023-06-10T02:43:50;18.90;94.80
34837;DHT22;21053;50.848;4.652;2023-06-10T02:46:18;18.80;94.80
34837;DHT22;21053;50.848;4.652;2023-06-10T02:48:47;18.80;94.80
34837;DHT22;21053;50.848;4.652;2023-06-10T02:51:17;18.70;94.70
34837;DHT22;21053;50.848;4.652;2023-06-10T02:53:46;18.70;94.70
34837;DHT22;21053;50.848;4.652;2023-06-10T02:56:16;18.50;95.00
34837;DHT22;21053;50.848;4.652;2023-06-10T02:58:42;18.30;95.60
34837;DHT22;21053;50.848;4.652;2023-06-10T03:01:07;18.10;96.10
34837;DHT22;21053;50.848;4.652;2023-06-10T03:03:35;17.90;96.50
34837;DHT22;21053;50.848;4.652;2023-06-10T03:06:05;18.00;96.40
34837;DHT22;21053;50.848;4.652;2023-06-10T03:08:33;18.10;96.10
34837;DHT22;21053;50.848;4.652;2023-06-10T03:11:01;18.10;96.20
34837;DHT22;21053;50.848;4.652;2023-06-10T03:13:30;18.10;96.10
34837;DHT22;21053;50.848;4.652;2023-06-10T03:15:58;17.90;96.40
34837;DHT22;21053;50.848;4.652;2023-06-10T03:18:28;18.00;96.30
34837;DHT22;21053;50.848;4.652;2023-06-10T03:20:54;18.10;96.20
34837;DHT22;21053;50.848;4.652;2023-06-10T03:23:23;18.10;96.10
34837;DHT22;21053;50.848;4.652;2023-06-10T03:25:50;18.00;96.30
34837;DHT22;21053;50.848;4.652;2023-06-10T03:28:18;18.10;96.10
34837;DHT22;21053;50.848;4.652;2023-06-10T03:30:43;18.20;96.00
34837;DHT22;21053;50.848;4.652;2023-06-10T03:33:12;18.00;96.20
34837;DHT22;21053;50.848;4.652;2023-06-10T03:35:40;17.80;96.80
34837;DHT22;21053;50.848;4.652;2023-06-10T03:38:12;17.70;97.10
34837;DHT22;21053;50.848;4.652;2023-06-10T03:40:40;17.60;97.40
34837;DHT22;21053;50.848;4.652;2023-06-10T03:43:11;17.50;97.70
34837;DHT22;21053;50.848;4.652;2023-06-10T03:45:53;17.70;97.30
34837;DHT22;21053;50.848;4.652;2023-06-10T03:48:20;17.70;97.30
34837;DHT22;21053;50.848;4.652;2023-06-10T03:50:49;17.70;97.40
34837;DHT22;21053;50.848;4.652;2023-06-10T03:53:17;17.70;97.40
34837;DHT22;21053;50.848;4.652;2023-06-10T03:55:46;17.70;97.40
34837;DHT22;21053;50.848;4.652;2023-06-10T03:58:15;17.70;97.40
34837;DHT22;21053;50.848;4.652;2023-06-10T04:00:40;17.80;97.40
34837;DHT22;21053;50.848;4.652;2023-06-10T04:03:12;17.80;97.50
34837;DHT22;21053;50.848;4.652;2023-06-10T04:05:42;17.80;97.40
34837;DHT22;21053;50.848;4.652;2023-06-10T04:08:09;17.70;97.60
34837;DHT22;21053;50.848;4.652;2023-06-10T04:10:38;17.80;97.50
34837;DHT22;21053;50.848;4.652;2023-06-10T04:13:07;17.80;97.50
34837;DHT22;21053;50.848;4.652;2023-06-10T04:15:36;17.80;97.60
34837;DHT22;21053;50.848;4.652;2023-06-10T04:18:01;17.80;97.60
34837;DHT22;21053;50.848;4.652;2023-06-10T04:20:30;17.80;97.70
34837;DHT22;21053;50.848;4.652;2023-06-10T04:22:58;17.80;98.00
34837;DHT22;21053;50.848;4.652;2023-06-10T04:25:26;17.90;97.80
34837;DHT22;21053;50.848;4.652;2023-06-10T04:27:55;17.90;97.80
34837;DHT22;21053;50.848;4.652;2023-06-10T04:30:22;17.80;98.30
34837;DHT22;21053;50.848;4.652;2023-06-10T04:32:47;18.00;98.20
34837;DHT22;21053;50.848;4.652;2023-06-10T04:35:15;18.00;98.20
34837;DHT22;21053;50.848;4.652;2023-06-10T04:37:41;18.20;98.10
34837;DHT22;21053;50.848;4.652;2023-06-10T04:40:13;18.30;98.00
34837;DHT22;21053;50.848;4.652;2023-06-10T04:42:42;18.30;98.20
34837;DHT22;21053;50.848;4.652;2023-06-10T04:45:40;18.30;98.50
34837;DHT22;21053;50.848;4.652;2023-06-10T04:48:12;18.30;98.70
34837;DHT22;21053;50.848;4.652;2023-06-10T04:50:38;18.50;98.40
34837;DHT22;21053;50.848;4.652;2023-06-10T04:53:05;18.50;98.60
34837;DHT22;21053;50.848;4.652;2023-06-10T04:55:37;18.60;98.70
34837;DHT22;21053;50.848;4.652;2023-06-10T04:58:02;18.60;98.80
34837;DHT22;21053;50.848;4.652;2023-06-10T05:00:28;18.80;98.80
34837;DHT22;21053;50.848;4.652;2023-06-10T05:02:55;18.80;98.90
34837;DHT22;21053;50.848;4.652;2023-06-10T05:05:24;19.00;98.90
34837;DHT22;21053;50.848;4.652;2023-06-10T05:07:53;19.10;98.90
34837;DHT22;21053;50.848;4.652;2023-06-10T05:10:19;19.20;99.10
34837;DHT22;21053;50.848;4.652;2023-06-10T05:12:45;19.30;99.20
34837;DHT22;21053;50.848;4.652;2023-06-10T05:15:13;19.30;99.40
34837;DHT22;21053;50.848;4.652;2023-06-10T05:17:42;19.40;99.60
34837;DHT22;21053;50.848;4.652;2023-06-10T05:20:09;19.40;99.70
34837;DHT22;21053;50.848;4.652;2023-06-10T05:22:35;19.60;99.80
34837;DHT22;21053;50.848;4.652;2023-06-10T05:25:04;19.70;99.90
34837;DHT22;21053;50.848;4.652;2023-06-10T05:27:30;19.80;99.50
34837;DHT22;21053;50.848;4.652;2023-06-10T05:29:58;19.90;99.60
34837;DHT22;21053;50.848;4.652;2023-06-10T05:32:30;20.00;99.10
34837;DHT22;21053;50.848;4.652;2023-06-10T05:34:56;20.10;99.10
34837;DHT22;21053;50.848;4.652;2023-06-10T05:37:25;20.30;98.90
34837;DHT22;21053;50.848;4.652;2023-06-10T05:39:52;20.40;98.40
34837;DHT22;21053;50.848;4.652;2023-06-10T05:42:21;20.50;96.90
34837;DHT22;21053;50.848;4.652;2023-06-10T05:44:50;20.60;96.60
34837;DHT22;21053;50.848;4.652;2023-06-10T05:47:17;20.80;96.80
34837;DHT22;21053;50.848;4.652;2023-06-10T05:49:44;20.90;96.50
34837;DHT22;21053;50.848;4.652;2023-06-10T05:52:19;21.00;96.40
34837;DHT22;21053;50.848;4.652;2023-06-10T05:54:49;21.10;95.70
34837;DHT22;21053;50.848;4.652;2023-06-10T05:57:16;21.30;96.00
34837;DHT22;21053;50.848;4.652;2023-06-10T05:59:45;21.50;94.90
34837;DHT22;21053;50.848;4.652;2023-06-10T06:02:14;21.60;94.80
34837;DHT22;21053;50.848;4.652;2023-06-10T06:04:43;21.60;94.80
34837;DHT22;21053;50.848;4.652;2023-06-10T06:07:11;21.80;94.70
34837;DHT22;21053;50.848;4.652;2023-06-10T06:09:38;21.80;93.70
34837;DHT22;21053;50.848;4.652;2023-06-10T06:12:05;21.90;93.70
34837;DHT22;21053;50.848;4.652;2023-06-10T06:14:37;22.00;92.80
34837;DHT22;21053;50.848;4.652;2023-06-10T06:17:07;22.10;93.20
34837;DHT22;21053;50.848;4.652;2023-06-10T06:19:39;22.20;93.10
34837;DHT22;21053;50.848;4.652;2023-06-10T06:22:05;22.30;92.40
34837;DHT22;21053;50.848;4.652;2023-06-10T06:24:31;22.50;92.50
34837;DHT22;21053;50.848;4.652;2023-06-10T06:27:00;22.60;92.30
34837;DHT22;21053;50.848;4.652;2023-06-10T06:29:29;22.60;92.00
34837;DHT22;21053;50.848;4.652;2023-06-10T06:31:56;22.70;91.90
34837;DHT22;21053;50.848;4.652;2023-06-10T06:34:24;22.90;91.90
34837;DHT22;21053;50.848;4.652;2023-06-10T06:36:51;23.00;91.40
34837;DHT22;21053;50.848;4.652;2023-06-10T06:39:17;23.10;90.70
34837;DHT22;21053;50.848;4.652;2023-06-10T06:41:49;23.30;91.10
34837;DHT22;21053;50.848;4.652;2023-06-10T06:44:16;23.30;90.90
34837;DHT22;21053;50.848;4.652;2023-06-10T06:46:54;23.40;90.60
34837;DHT22;21053;50.848;4.652;2023-06-10T06:49:23;23.40;90.40
34837;DHT22;21053;50.848;4.652;2023-06-10T06:51:50;23.50;90.20
34837;DHT22;21053;50.848;4.652;2023-06-10T06:54:16;23.60;90.30
34837;DHT22;21053;50.848;4.652;2023-06-10T06:56:45;23.70;90.80
34837;DHT22;21053;50.848;4.652;2023-06-10T06:59:11;23.90;90.50
34837;DHT22;21053;50.848;4.652;2023-06-10T07:01:41;24.00;90.50
34837;DHT22;21053;50.848;4.652;2023-06-10T07:04:15;24.10;89.20
34837;DHT22;21053;50.848;4.652;2023-06-10T07:06:44;24.30;88.10
34837;DHT22;21053;50.848;4.652;2023-06-10T07:09:11;24.30;88.40
34837;DHT22;21053;50.848;4.652;2023-06-10T07:11:37;24.30;87.90
34837;DHT22;21053;50.848;4.652;2023-06-10T07:14:06;24.50;86.70
34837;DHT22;21053;50.848;4.652;2023-06-10T07:16:32;24.50;87.40
34837;DHT22;21053;50.848;4.652;2023-06-10T07:19:04;24.60;88.60
34837;DHT22;21053;50.848;4.652;2023-06-10T07:21:32;24.70;86.70
34837;DHT22;21053;50.848;4.652;2023-06-10T07:24:02;24.90;86.30
34837;DHT22;21053;50.848;4.652;2023-06-10T07:26:31;25.00;85.70
34837;DHT22;21053;50.848;4.652;2023-06-10T07:28:56;25.10;81.40
34837;DHT22;21053;50.848;4.652;2023-06-10T07:31:25;25.20;84.30
34837;DHT22;21053;50.848;4.652;2023-06-10T07:33:53;25.20;84.50
34837;DHT22;21053;50.848;4.652;2023-06-10T07:36:19;25.40;85.80
34837;DHT22;21053;50.848;4.652;2023-06-10T07:38:48;25.40;84.00
34837;DHT22;21053;50.848;4.652;2023-06-10T07:41:15;25.50;85.10
34837;DHT22;21053;50.848;4.652;2023-06-10T07:43:55;25.70;85.40
34837;DHT22;21053;50.848;4.652;2023-06-10T07:46:24;25.80;82.30
34837;DHT22;21053;50.848;4.652;2023-06-10T07:48:53;25.90;81.60
34837;DHT22;21053;50.848;4.652;2023-06-10T07:51:20;26.00;80.20
34837;DHT22;21053;50.848;4.652;2023-06-10T07:53:46;26.10;82.00
34837;DHT22;21053;50.848;4.652;2023-06-10T07:56:14;26.10;82.50
34837;DHT22;21053;50.848;4.652;2023-06-10T07:58:43;26.20;81.30
34837;DHT22;21053;50.848;4.652;2023-06-10T08:01:11;26.30;81.20
34837;DHT22;21053;50.848;4.652;2023-06-10T08:03:39;26.40;80.70
34837;DHT22;21053;50.848;4.652;2023-06-10T08:06:05;26.50;78.20
34837;DHT22;21053;50.848;4.652;2023-06-10T08:08:34;26.60;79.70
34837;DHT22;21053;50.848;4.652;2023-06-10T08:11:03;26.70;78.00
34837;DHT22;21053;50.848;4.652;2023-06-10T08:13:32;26.90;77.30
34837;DHT22;21053;50.848;4.652;2023-06-10T08:16:03;26.90;78.30
34837;DHT22;21053;50.848;4.652;2023-06-10T08:18:32;26.90;77.30
34837;DHT22;21053;50.848;4.652;2023-06-10T08:20:59;27.10;77.90
34837;DHT22;21053;50.848;4.652;2023-06-10T08:23:27;27.20;77.40
34837;DHT22;21053;50.848;4.652;2023-06-10T08:25:54;27.30;76.80
34837;DHT22;21053;50.848;4.652;2023-06-10T08:28:21;27.50;77.60
34837;DHT22;21053;50.848;4.652;2023-06-10T08:30:46;27.80;77.60
34837;DHT22;21053;50.848;4.652;2023-06-10T08:33:14;28.00;76.50
34837;DHT22;21053;50.848;4.652;2023-06-10T08:35:40;28.10;75.70
34837;DHT22;21053;50.848;4.652;2023-06-10T08:38:15;28.20;75.80
34837;DHT22;21053;50.848;4.652;2023-06-10T08:40:42;28.30;71.40
34837;DHT22;21053;50.848;4.652;2023-06-10T08:44:03;28.40;71.80
34837;DHT22;21053;50.848;4.652;2023-06-10T08:46:08;28.30;71.20
34837;DHT22;21053;50.848;4.652;2023-06-10T08:48:39;28.40;73.60
34837;DHT22;21053;50.848;4.652;2023-06-10T08:51:10;28.40;73.70
34837;DHT22;21053;50.848;4.652;2023-06-10T08:53:38;28.80;70.60
34837;DHT22;21053;50.848;4.652;2023-06-10T08:56:09;28.90;70.50
34837;DHT22;21053;50.848;4.652;2023-06-10T08:58:37;29.10;66.90
34837;DHT22;21053;50.848;4.652;2023-06-10T09:01:10;29.30;68.40
34837;DHT22;21053;50.848;4.652;2023-06-10T09:03:37;29.50;70.70
34837;DHT22;21053;50.848;4.652;2023-06-10T09:06:05;29.70;65.70
34837;DHT22;21053;50.848;4.652;2023-06-10T09:08:33;29.90;67.30
34837;DHT22;21053;50.848;4.652;2023-06-10T09:11:03;30.00;67.20
34837;DHT22;21053;50.848;4.652;2023-06-10T09:13:31;30.10;68.10
34837;DHT22;21053;50.848;4.652;2023-06-10T09:15:56;30.10;64.80
34837;DHT22;21053;50.848;4.652;2023-06-10T09:18:28;30.20;64.90
34837;DHT22;21053;50.848;4.652;2023-06-10T09:20:55;30.40;67.60
34837;DHT22;21053;50.848;4.652;2023-06-10T09:23:22;30.50;65.40
34837;DHT22;21053;50.848;4.652;2023-06-10T09:25:56;30.70;67.30
34837;DHT22;21053;50.848;4.652;2023-06-10T09:28:25;30.90;65.30
34837;DHT22;21053;50.848;4.652;2023-06-10T09:31:05;31.00;62.80
34837;DHT22;21053;50.848;4.652;2023-06-10T09:33:38;31.00;63.10
34837;DHT22;21053;50.848;4.652;2023-06-10T09:36:07;31.00;68.60
34837;DHT22;21053;50.848;4.652;2023-06-10T09:38:35;31.20;64.10
34837;DHT22;21053;50.848;4.652;2023-06-10T09:41:03;31.30;64.90
34837;DHT22;21053;50.848;4.652;2023-06-10T09:43:45;31.40;59.00
34837;DHT22;21053;50.848;4.652;2023-06-10T09:46:18;31.50;63.80
34837;DHT22;21053;50.848;4.652;2023-06-10T09:48:48;31.60;63.40
34837;DHT22;21053;50.848;4.652;2023-06-10T09:51:16;31.60;61.10
34837;DHT22;21053;50.848;4.652;2023-06-10T09:53:54;31.70;61.40
34837;DHT22;21053;50.848;4.652;2023-06-10T09:56:21;31.70;60.20
34837;DHT22;21053;50.848;4.652;2023-06-10T09:58:53;31.90;61.50
34837;DHT22;21053;50.848;4.652;2023-06-10T10:01:19;32.10;62.10
34837;DHT22;21053;50.848;4.652;2023-06-10T10:03:48;32.30;60.20
34837;DHT22;21053;50.848;4.652;2023-06-10T10:06:18;32.20;57.60
34837;DHT22;21053;50.848;4.652;2023-06-10T10:08:46;32.20;59.10
34837;DHT22;21053;50.848;4.652;2023-06-10T10:11:17;32.40;58.80
34837;DHT22;21053;50.848;4.652;2023-06-10T10:13:45;32.40;57.40
34837;DHT22;21053;50.848;4.652;2023-06-10T10:16:15;32.50;58.30
34837;DHT22;21053;50.848;4.652;2023-06-10T10:18:55;32.60;59.00
34837;DHT22;21053;50.848;4.652;2023-06-10T10:21:32;32.40;56.90
34837;DHT22;21053;50.848;4.652;2023-06-10T10:24:09;32.30;55.70
34837;DHT22;21053;50.848;4.652;2023-06-10T10:26:38;32.20;56.90
34837;DHT22;21053;50.848;4.652;2023-06-10T10:29:16;32.30;57.80
34837;DHT22;21053;50.848;4.652;2023-06-10T10:31:46;32.60;61.10
34837;DHT22;21053;50.848;4.652;2023-06-10T10:35:03;32.80;58.10
34837;DHT22;21053;50.848;4.652;2023-06-10T10:37:09;32.90;54.70
34837;DHT22;21053;50.848;4.652;2023-06-10T10:39:36;32.80;57.10
34837;DHT22;21053;50.848;4.652;2023-06-10T10:42:05;32.80;53.10
34837;DHT22;21053;50.848;4.652;2023-06-10T10:44:38;32.80;51.90
34837;DHT22;21053;50.848;4.652;2023-06-10T10:47:08;32.70;53.50
34837;DHT22;21053;50.848;4.652;2023-06-10T10:49:37;32.90;54.30
34837;DHT22;21053;50.848;4.652;2023-06-10T10:52:03;32.90;54.40
34837;DHT22;21053;50.848;4.652;2023-06-10T10:54:36;33.20;56.10
34837;DHT22;21053;50.848;4.652;2023-06-10T10:57:17;33.20;56.60
34837;DHT22;21053;50.848;4.652;2023-06-10T10:59:57;33.40;55.30
34837;DHT22;21053;50.848;4.652;2023-06-10T11:02:45;33.40;53.30
34837;DHT22;21053;50.848;4.652;2023-06-10T11:05:17;33.20;51.90
34837;DHT22;21053;50.848;4.652;2023-06-10T11:07:54;33.30;52.40
34837;DHT22;21053;50.848;4.652;2023-06-10T11:10:37;33.30;49.60
34837;DHT22;21053;50.848;4.652;2023-06-10T11:15:46;33.80;51.30
34837;DHT22;21053;50.848;4.652;2023-06-10T11:18:26;33.70;48.80
34837;DHT22;21053;50.848;4.652;2023-06-10T11:20:57;33.80;50.50
34837;DHT22;21053;50.848;4.652;2023-06-10T11:31:26;35.60;50.20
34837;DHT22;21053;50.848;4.652;2023-06-10T11:33:56;36.20;48.50
34837;DHT22;21053;50.848;4.652;2023-06-10T11:36:23;36.40;47.80
34837;DHT22;21053;50.848;4.652;2023-06-10T11:38:50;35.80;49.80
34837;DHT22;21053;50.848;4.652;2023-06-10T11:41:23;35.10;48.20
34837;DHT22;21053;50.848;4.652;2023-06-10T11:43:52;34.80;50.50
34837;DHT22;21053;50.848;4.652;2023-06-10T11:46:20;34.50;49.30
34837;DHT22;21053;50.848;4.652;2023-06-10T11:48:57;34.20;47.80
34837;DHT22;21053;50.848;4.652;2023-06-10T11:51:28;33.90;48.10
34837;DHT22;21053;50.848;4.652;2023-06-10T11:53:56;33.60;46.40
34837;DHT22;21053;50.848;4.652;2023-06-10T11:59:04;33.40;46.80
34837;DHT22;21053;50.848;4.652;2023-06-10T12:01:42;33.40;48.10
34837;DHT22;21053;50.848;4.652;2023-06-10T12:04:12;33.30;48.30
34837;DHT22;21053;50.848;4.652;2023-06-10T12:06:52;33.30;48.60
34837;DHT22;21053;50.848;4.652;2023-06-10T12:09:20;33.40;49.70
34837;DHT22;21053;50.848;4.652;2023-06-10T12:11:54;33.60;48.50
34837;DHT22;21053;50.848;4.652;2023-06-10T12:14:55;33.70;48.80
34837;DHT22;21053;50.848;4.652;2023-06-10T12:22:57;32.80;50.50
34837;DHT22;21053;50.848;4.652;2023-06-10T12:25:29;33.00;51.10
34837;DHT22;21053;50.848;4.652;2023-06-10T12:27:58;33.30;51.30
34837;DHT22;21053;50.848;4.652;2023-06-10T12:30:26;33.60;51.70
34837;DHT22;21053;50.848;4.652;2023-06-10T12:32:54;33.80;48.10
34837;DHT22;21053;50.848;4.652;2023-06-10T12:35:21;33.70;50.10
34837;DHT22;21053;50.848;4.652;2023-06-10T12:38:05;33.80;49.30
34837;DHT22;21053;50.848;4.652;2023-06-10T12:40:38;33.80;48.20
34837;DHT22;21053;50.848;4.652;2023-06-10T12:43:09;33.90;49.80
34837;DHT22;21053;50.848;4.652;2023-06-10T12:45:42;33.70;50.10
34837;DHT22;21053;50.848;4.652;2023-06-10T12:50:58;33.20;48.00
34837;DHT22;21053;50.848;4.652;2023-06-10T12:53:25;33.20;48.50
34837;DHT22;21053;50.848;4.652;2023-06-10T12:55:53;33.00;48.70
34837;DHT22;21053;50.848;4.652;2023-06-10T12:58:22;33.00;48.80
34837;DHT22;21053;50.848;4.652;2023-06-10T13:00:49;33.20;48.10
34837;DHT22;21053;50.848;4.652;2023-06-10T13:03:24;33.40;50.10
34837;DHT22;21053;50.848;4.652;2023-06-10T13:05:52;33.50;47.40
34837;DHT22;21053;50.848;4.652;2023-06-10T13:08:21;33.50;49.30
34837;DHT22;21053;50.848;4.652;2023-06-10T13:10:48;33.50;49.50
34837;DHT22;21053;50.848;4.652;2023-06-10T13:13:20;33.50;47.60
34837;DHT22;21053;50.848;4.652;2023-06-10T13:15:46;33.30;48.10
34837;DHT22;21053;50.848;4.652;2023-06-10T13:18:12;33.20;47.30
34837;DHT22;21053;50.848;4.652;2023-06-10T13:20:43;33.40;50.50
34837;DHT22;21053;50.848;4.652;2023-06-10T13:23:16;33.40;49.50
34837;DHT22;21053;50.848;4.652;2023-06-10T13:25:41;33.60;49.90
34837;DHT22;21053;50.848;4.652;2023-06-10T13:28:13;33.70;48.10
34837;DHT22;21053;50.848;4.652;2023-06-10T13:30:40;33.60;48.40
34837;DHT22;21053;50.848;4.652;2023-06-10T13:33:06;33.60;50.20
34837;DHT22;21053;50.848;4.652;2023-06-10T13:35:32;33.60;48.90
34837;DHT22;21053;50.848;4.652;2023-06-10T13:38:04;33.70;47.90
34837;DHT22;21053;50.848;4.652;2023-06-10T13:40:33;33.60;47.90
34837;DHT22;21053;50.848;4.652;2023-06-10T13:42:59;33.30;47.60
34837;DHT22;21053;50.848;4.652;2023-06-10T13:45:28;33.10;49.00
34837;DHT22;21053;50.848;4.652;2023-06-10T13:47:53;33.00;48.40
34837;DHT22;21053;50.848;4.652;2023-06-10T13:50:22;32.90;49.10
34837;DHT22;21053;50.848;4.652;2023-06-10T13:52:49;33.00;48.90
34837;DHT22;21053;50.848;4.652;2023-06-10T13:55:16;33.30;50.80
34837;DHT22;21053;50.848;4.652;2023-06-10T13:57:47;33.30;48.60
34837;DHT22;21053;50.848;4.652;2023-06-10T14:00:15;33.30;48.90
34837;DHT22;21053;50.848;4.652;2023-06-10T14:02:44;33.30;49.70
34837;DHT22;21053;50.848;4.652;2023-06-10T14:05:17;33.20;47.50
34837;DHT22;21053;50.848;4.652;2023-06-10T14:07:42;33.30;48.90
34837;DHT22;21053;50.848;4.652;2023-06-10T14:10:10;33.30;48.60
34837;DHT22;21053;50.848;4.652;2023-06-10T14:12:39;33.40;47.80
34837;DHT22;21053;50.848;4.652;2023-06-10T14:15:06;33.40;48.80
34837;DHT22;21053;50.848;4.652;2023-06-10T14:17:35;33.30;48.00
34837;DHT22;21053;50.848;4.652;2023-06-10T14:20:10;33.30;48.60
34837;DHT22;21053;50.848;4.652;2023-06-10T14:22:39;33.40;49.00
34837;DHT22;21053;50.848;4.652;2023-06-10T14:25:07;33.60;47.80
34837;DHT22;21053;50.848;4.652;2023-06-10T14:27:34;33.60;48.30
34837;DHT22;21053;50.848;4.652;2023-06-10T14:30:01;33.60;47.50
34837;DHT22;21053;50.848;4.652;2023-06-10T14:32:31;33.40;47.60
34837;DHT22;21053;50.848;4.652;2023-06-10T14:34:57;33.10;48.50
34837;DHT22;21053;50.848;4.652;2023-06-10T14:37:26;33.20;49.30
34837;DHT22;21053;50.848;4.652;2023-06-10T14:40:04;33.30;50.00
34837;DHT22;21053;50.848;4.652;2023-06-10T14:42:34;33.50;48.20
34837;DHT22;21053;50.848;4.652;2023-06-10T14:44:59;33.40;49.00
34837;DHT22;21053;50.848;4.652;2023-06-10T14:47:28;33.40;47.30
34837;DHT22;21053;50.848;4.652;2023-06-10T14:49:57;33.20;48.00
34837;DHT22;21053;50.848;4.652;2023-06-10T14:52:24;33.10;47.30
34837;DHT22;21053;50.848;4.652;2023-06-10T14:54:53;32.90;47.50
34837;DHT22;21053;50.848;4.652;2023-06-10T14:57:18;32.70;48.50
34837;DHT22;21053;50.848;4.652;2023-06-10T14:59:44;32.70;48.30
34837;DHT22;21053;50.848;4.652;2023-06-10T15:02:11;32.70;49.50
34837;DHT22;21053;50.848;4.652;2023-06-10T15:04:37;32.80;49.50
34837;DHT22;21053;50.848;4.652;2023-06-10T15:07:09;32.80;49.40
34837;DHT22;21053;50.848;4.652;2023-06-10T15:09:38;32.80;48.70
34837;DHT22;21053;50.848;4.652;2023-06-10T15:12:06;32.80;47.20
34837;DHT22;21053;50.848;4.652;2023-06-10T15:14:31;32.80;49.90
34837;DHT22;21053;50.848;4.652;2023-06-10T15:17:00;32.80;49.20
34837;DHT22;21053;50.848;4.652;2023-06-10T15:19:29;32.70;48.60
34837;DHT22;21053;50.848;4.652;2023-06-10T15:21:57;32.50;48.60
34837;DHT22;21053;50.848;4.652;2023-06-10T15:24:26;32.40;49.90
34837;DHT22;21053;50.848;4.652;2023-06-10T15:26:54;32.40;51.50
34837;DHT22;21053;50.848;4.652;2023-06-10T15:29:23;32.50;50.10
34837;DHT22;21053;50.848;4.652;2023-06-10T15:31:52;32.50;50.50
34837;DHT22;21053;50.848;4.652;2023-06-10T15:34:22;32.60;49.10
34837;DHT22;21053;50.848;4.652;2023-06-10T15:36:51;32.60;49.30
34837;DHT22;21053;50.848;4.652;2023-06-10T15:39:16;32.70;50.40
34837;DHT22;21053;50.848;4.652;2023-06-10T15:41:47;32.60;50.20
34837;DHT22;21053;50.848;4.652;2023-06-10T15:44:18;32.60;48.40
34837;DHT22;21053;50.848;4.652;2023-06-10T15:46:46;32.40;49.30
34837;DHT22;21053;50.848;4.652;2023-06-10T15:49:12;32.30;49.60
34837;DHT22;21053;50.848;4.652;2023-06-10T15:51:40;32.30;50.50
34837;DHT22;21053;50.848;4.652;2023-06-10T15:54:09;32.30;50.70
34837;DHT22;21053;50.848;4.652;2023-06-10T15:56:36;32.20;48.70
34837;DHT22;21053;50.848;4.652;2023-06-10T15:59:02;32.20;49.60
34837;DHT22;21053;50.848;4.652;2023-06-10T16:01:28;32.10;49.70
34837;DHT22;21053;50.848;4.652;2023-06-10T16:03:56;31.90;49.60
34837;DHT22;21053;50.848;4.652;2023-06-10T16:06:23;31.90;50.10
34837;DHT22;21053;50.848;4.652;2023-06-10T16:08:51;31.80;48.80
34837;DHT22;21053;50.848;4.652;2023-06-10T16:11:20;31.70;50.60
34837;DHT22;21053;50.848;4.652;2023-06-10T16:13:49;31.80;50.90